Time;durP1;ratioP1;P1;durP2;ratioP2;P2;SDS_P1;SDS_P2;PMS_P1;PMS_P2;Temp;Humidity;BMP_temperature;BMP_pressure;BME280_temperature;BME280_humidity;BME280_pressure;Samples;Min_cycle;Max_cycle;Signal;HPM_P1;HPM_P2
2021/12/02 05:43:49;;;;;;;10.50;9.00;;;;;;;3.48;86.19;96156.20;1871643;76;28036;-60
2021/12/02 05:46:15;;;;;;;11.40;6.45;;;;;;;3.45;86.09;96162.86;1827983;78;20853;-60
2021/12/02 05:48:42;;;;;;;8.40;5.35;;;;;;;3.50;86.06;96168.61;1827961;78;21082;-60
2021/12/02 05:51:08;;;;;;;7.37;4.72;;;;;;;3.53;85.94;96170.16;1828048;78;20884;-60
2021/12/02 05:53:34;;;;;;;20.52;12.23;;;;;;;3.59;85.96;96166.34;1827851;78;20892;-59
2021/12/02 05:56:01;;;;;;;26.20;14.63;;;;;;;3.67;85.93;96182.11;1827893;78;20939;-62
2021/12/02 05:58:27;;;;;;;57.65;25.20;;;;;;;3.73;85.83;96183.05;1828247;78;20872;-63
2021/12/02 06:00:54;;;;;;;34.05;24.02;;;;;;;3.79;85.64;96187.18;1827840;78;21114;-60
2021/12/02 06:03:22;;;;;;;53.92;22.62;;;;;;;3.83;85.48;96189.52;1827734;78;20947;-60
2021/12/02 06:05:49;;;;;;;36.90;25.90;;;;;;;3.89;85.28;96184.38;1827844;78;20868;-57
2021/12/02 06:08:15;;;;;;;14.98;8.30;;;;;;;3.95;84.97;96185.88;1827684;78;20868;-60
2021/12/02 06:10:42;;;;;;;10.10;7.40;;;;;;;4.00;84.81;96183.11;1827121;78;21485;-59
2021/12/02 06:13:10;;;;;;;9.03;6.08;;;;;;;4.03;84.66;96194.45;1827394;78;21107;-59
2021/12/02 06:15:36;;;;;;;9.88;5.87;;;;;;;4.06;84.52;96195.21;1827943;78;20869;-59
2021/12/02 06:18:04;;;;;;;12.18;7.10;;;;;;;4.07;84.40;96188.81;1827760;78;21426;-61
2021/12/02 06:20:31;;;;;;;9.75;5.45;;;;;;;4.09;84.25;96192.52;1822864;78;20967;-61
2021/12/02 06:22:57;;;;;;;7.80;5.08;;;;;;;4.10;84.04;96202.02;1822767;78;20976;-59
2021/12/02 06:27:53;;;;;;;18.48;14.80;;;;;;;4.13;83.61;96198.80;1822836;78;20958;-61
2021/12/02 06:30:24;;;;;;;10.13;6.90;;;;;;;4.15;83.46;96193.45;1822832;78;20908;-59
2021/12/02 06:32:51;;;;;;;8.88;6.83;;;;;;;4.18;83.31;96196.59;1820614;78;21540;-60
2021/12/02 06:35:18;;;;;;;11.30;6.50;;;;;;;4.19;82.95;96195.53;1822711;78;20884;-61
2021/12/02 06:37:46;;;;;;;11.57;6.67;;;;;;;4.18;82.96;96197.39;1823551;78;21070;-62
2021/12/02 06:40:13;;;;;;;12.00;5.87;;;;;;;4.19;82.56;96202.16;1822803;78;20977;-59
2021/12/02 06:42:41;;;;;;;8.78;5.15;;;;;;;4.19;82.60;96202.16;1822807;78;21339;-61
2021/12/02 06:45:09;;;;;;;8.50;5.95;;;;;;;4.19;82.44;96208.78;1819766;78;20845;-60
2021/12/02 06:47:40;;;;;;;9.05;6.12;;;;;;;4.21;82.41;96215.89;1824078;78;21375;-59
2021/12/02 06:50:16;;;;;;;8.90;7.05;;;;;;;4.21;82.33;96213.25;1820114;78;21250;-59
2021/12/02 06:52:44;;;;;;;9.48;6.22;;;;;;;4.21;82.24;96223.84;1823392;78;20908;-61
2021/12/02 06:55:13;;;;;;;9.30;5.78;;;;;;;4.21;82.05;96227.82;1823028;78;21078;-59
2021/12/02 06:57:39;;;;;;;8.33;5.17;;;;;;;4.21;81.96;96226.49;1823182;78;21435;-58
2021/12/02 07:00:09;;;;;;;9.58;6.22;;;;;;;4.22;81.94;96229.38;1818958;78;20857;-58
2021/12/02 07:02:36;;;;;;;10.38;7.10;;;;;;;4.25;81.85;96226.15;1820633;78;21075;-59
2021/12/02 07:05:08;;;;;;;10.63;6.05;;;;;;;4.25;81.83;96220.31;1817910;77;20920;-56
2021/12/02 07:07:37;;;;;;;9.15;5.85;;;;;;;4.27;81.77;96221.34;1821073;77;21059;-57
2021/12/02 07:10:13;;;;;;;9.38;5.67;;;;;;;4.27;81.71;96227.97;1821555;77;20967;-59
2021/12/02 07:12:42;;;;;;;10.95;5.30;;;;;;;4.28;81.70;96230.34;1822626;78;20867;-58
2021/12/02 07:15:25;;;;;;;9.50;5.30;;;;;;;4.33;81.61;96236.09;1818559;78;21049;-60
2021/12/02 07:17:48;;;;;;;7.03;5.58;;;;;;;4.37;81.58;96227.80;1820873;78;20904;-59
2021/12/02 07:20:15;;;;;;;10.20;6.30;;;;;;;4.42;81.54;96243.61;1820123;78;20919;-59
2021/12/02 07:22:41;;;;;;;9.35;6.90;;;;;;;4.45;81.42;96233.75;1817589;78;20951;-62
2021/12/02 07:25:09;;;;;;;9.45;6.40;;;;;;;4.48;81.40;96233.94;1820989;78;20932;-61
2021/12/02 07:27:37;;;;;;;9.50;6.17;;;;;;;4.51;81.00;96240.52;1822387;78;21116;-58
2021/12/02 07:30:07;;;;;;;8.45;6.30;;;;;;;4.53;81.00;96244.98;1820933;78;20959;-61
2021/12/02 07:32:40;;;;;;;9.05;6.55;;;;;;;4.56;80.97;96233.80;1824299;78;21470;-56
2021/12/02 07:35:13;;;;;;;13.58;8.58;;;;;;;4.62;81.03;96240.58;1796455;78;20948;-58
2021/12/02 07:37:52;;;;;;;9.48;6.20;;;;;;;4.70;80.85;96241.23;1796219;79;20935;-60
2021/12/02 07:40:23;;;;;;;8.90;5.78;;;;;;;4.75;80.53;96243.78;1794074;79;21395;-59
2021/12/02 07:42:52;;;;;;;9.18;4.92;;;;;;;4.79;80.37;96243.43;1787218;79;20979;-61
2021/12/02 07:45:27;;;;;;;7.12;5.17;;;;;;;4.82;80.24;96245.50;1782819;79;20922;-59
2021/12/02 07:48:00;;;;;;;8.23;5.12;;;;;;;4.88;80.03;96239.00;1768417;80;20918;-57
2021/12/02 07:50:34;;;;;;;12.23;5.97;;;;;;;4.92;80.01;96246.64;1764520;80;20992;-58
2021/12/02 07:53:07;;;;;;;8.55;4.60;;;;;;;4.99;79.96;96244.37;1763233;80;21143;-59
2021/12/02 07:55:43;;;;;;;9.15;5.40;;;;;;;5.06;79.63;96242.11;1766345;81;20928;-59
2021/12/02 07:58:12;;;;;;;;;;;;;;;5.11;79.45;96246.52;1756424;81;20946;-61
2021/12/02 08:00:41;;;;;;;5.28;4.00;;;;;;;5.14;79.50;96245.38;1732210;81;20194;-62
2021/12/02 08:03:12;;;;;;;6.58;4.37;;;;;;;5.15;79.45;96248.28;1758872;81;20951;-58
2021/12/02 08:05:42;;;;;;;9.00;4.50;;;;;;;5.19;79.24;96253.77;1766971;81;21110;-60
2021/12/02 08:08:12;;;;;;;6.55;4.15;;;;;;;5.21;79.00;96251.59;1754874;80;20974;-60
2021/12/02 08:10:43;;;;;;;9.38;4.87;;;;;;;5.21;78.85;96255.05;1759025;80;20933;-61
2021/12/02 08:13:14;;;;;;;6.95;4.58;;;;;;;5.24;78.97;96257.11;1760648;81;20995;-62
2021/12/02 08:15:47;;;;;;;5.58;4.05;;;;;;;5.27;79.13;96251.22;1760456;81;20983;-58
2021/12/02 08:18:18;;;;;;;5.03;2.80;;;;;;;5.34;78.78;96251.59;1765901;81;21089;-59
2021/12/02 08:20:48;;;;;;;5.15;3.37;;;;;;;5.38;78.67;96255.22;1762438;81;21425;-58
2021/12/02 08:23:18;;;;;;;4.17;3.33;;;;;;;5.43;78.69;96268.92;1765884;81;21003;-59
2021/12/02 08:25:48;;;;;;;4.33;3.05;;;;;;;5.47;78.67;96269.36;1766814;81;21409;-58
2021/12/02 08:28:21;;;;;;;6.40;3.40;;;;;;;5.54;78.41;96272.92;1765283;81;20893;-62
2021/12/02 08:30:52;;;;;;;4.72;2.83;;;;;;;5.62;78.49;96274.09;1763344;81;21044;-61
2021/12/02 08:33:26;;;;;;;5.65;3.40;;;;;;;5.69;77.98;96271.80;1766404;81;20979;-59
2021/12/02 08:36:04;;;;;;;6.58;3.50;;;;;;;5.74;77.90;96273.02;1766350;80;21076;-58
2021/12/02 08:38:38;;;;;;;5.62;3.85;;;;;;;5.80;77.80;96267.83;1726282;81;21057;-62
2021/12/02 08:41:19;;;;;;;8.08;4.45;;;;;;;5.83;77.51;96264.03;1759734;81;20955;-62
2021/12/02 08:43:49;;;;;;;5.47;4.60;;;;;;;5.86;77.11;96265.34;1761722;81;21110;-61
2021/12/02 08:46:21;;;;;;;8.60;4.72;;;;;;;5.86;76.96;96262.69;1762298;81;21020;-58
2021/12/02 08:48:53;;;;;;;5.15;4.00;;;;;;;5.87;77.02;96269.02;1757485;81;21439;-62
2021/12/02 08:51:28;;;;;;;6.03;3.50;;;;;;;5.90;77.01;96267.63;1760704;81;21052;-59
2021/12/02 08:53:57;;;;;;;6.17;4.25;;;;;;;5.93;76.81;96290.41;1758273;81;20948;-60
2021/12/02 08:56:28;;;;;;;9.80;5.65;;;;;;;5.98;76.73;96274.89;1761217;81;21148;-59
2021/12/02 08:58:59;;;;;;;9.98;6.80;;;;;;;6.00;76.76;96270.05;1760264;81;20973;-58
2021/12/02 09:01:29;;;;;;;6.67;3.77;;;;;;;6.06;76.49;96263.52;1760252;81;21577;-58
2021/12/02 09:03:57;;;;;;;4.78;3.33;;;;;;;6.07;76.30;96259.25;1759822;81;20919;-58
2021/12/02 09:06:27;;;;;;;10.63;5.72;;;;;;;6.09;76.14;96261.59;1760320;81;21026;-60
2021/12/02 09:08:58;;;;;;;6.70;4.90;;;;;;;6.13;76.06;96260.69;1747729;81;21134;-59
2021/12/02 09:11:28;;;;;;;8.50;6.08;;;;;;;6.16;75.95;96256.09;1750555;81;21632;-62
2021/12/02 09:14:02;;;;;;;3.85;2.95;;;;;;;6.18;75.95;96257.91;1752946;81;21030;-59
2021/12/02 09:16:33;;;;;;;8.73;4.50;;;;;;;6.17;75.51;96246.26;1756784;81;20919;-59
2021/12/02 09:19:04;;;;;;;5.42;3.55;;;;;;;6.17;75.39;96250.25;1761181;81;21014;-58
2021/12/02 09:21:33;;;;;;;5.45;3.87;;;;;;;6.16;75.49;96254.77;1758860;81;21105;-59
2021/12/02 09:24:04;;;;;;;6.58;3.40;;;;;;;6.18;75.44;96251.80;1761416;81;21050;-60
2021/12/02 09:26:36;;;;;;;7.17;2.50;;;;;;;6.21;75.49;96256.52;1757976;81;21605;-60
2021/12/02 09:29:06;;;;;;;4.28;2.37;;;;;;;6.23;74.92;96256.99;1760268;81;20998;-60
2021/12/02 09:31:36;;;;;;;5.00;3.62;;;;;;;6.29;74.98;96249.69;1761403;81;20999;-61
2021/12/02 09:34:05;;;;;;;5.92;3.50;;;;;;;6.29;75.16;96255.00;1760946;81;21717;-57
2021/12/02 09:36:37;;;;;;;4.58;3.15;;;;;;;6.33;74.98;96256.75;1760475;81;21470;-62
2021/12/02 09:39:07;;;;;;;5.60;3.87;;;;;;;6.36;74.34;96264.09;1761723;81;21470;-58
2021/12/02 09:41:38;;;;;;;6.62;2.75;;;;;;;6.37;74.33;96263.02;1761897;81;20889;-61
2021/12/02 09:44:09;;;;;;;8.68;5.28;;;;;;;6.36;74.03;96268.09;1761922;81;21034;-57
2021/12/02 09:46:40;;;;;;;3.45;2.20;;;;;;;6.37;74.26;96267.01;1763417;81;21035;-58
2021/12/02 09:49:10;;;;;;;262.57;120.72;;;;;;;6.40;74.38;96255.77;1766298;81;21043;-63
2021/12/02 09:54:37;;;;;;;6.65;2.95;;;;;;;6.47;74.30;96244.16;1762195;81;20948;-59
2021/12/02 09:57:06;;;;;;;31.97;5.90;;;;;;;6.49;74.25;96257.92;1737759;81;20982;-61
2021/12/02 09:59:57;;;;;;;5.17;3.17;;;;;;;6.51;74.34;96259.73;1761342;81;21116;-60
2021/12/02 10:02:09;;;;;;;5.95;3.90;;;;;;;6.51;74.40;96243.77;1738308;81;20980;-64
2021/12/02 10:04:49;;;;;;;5.35;4.03;;;;;;;6.55;74.43;96251.37;1762250;81;21002;-62
2021/12/02 10:07:21;;;;;;;5.20;3.67;;;;;;;6.56;74.20;96253.49;1757928;81;21058;-62
2021/12/02 10:10:13;;;;;;;8.60;3.58;;;;;;;6.57;74.03;96247.86;1754524;81;20936;-58
2021/12/02 10:12:53;;;;;;;6.40;5.28;;;;;;;6.59;73.96;96249.69;1760889;81;21102;-58
2021/12/02 10:15:18;;;;;;;5.28;3.87;;;;;;;6.64;74.33;96254.85;1761467;81;21604;-56
2021/12/02 10:17:53;;;;;;;7.87;4.03;;;;;;;6.70;74.09;96254.97;1761120;81;21138;-58
2021/12/02 10:20:34;;;;;;;5.95;4.10;;;;;;;6.71;73.99;96249.88;1731249;81;20916;-59
2021/12/02 10:23:24;;;;;;;4.92;3.45;;;;;;;6.72;73.84;96244.02;1764944;81;20959;-61
2021/12/02 10:26:00;;;;;;;10.40;6.10;;;;;;;6.75;73.80;96240.75;1780981;80;21102;-61
2021/12/02 10:28:33;;;;;;;9.58;6.70;;;;;;;6.78;73.71;96240.90;1818478;78;21495;-60
2021/12/02 10:31:04;;;;;;;6.65;3.67;;;;;;;6.82;73.68;96240.55;1789309;79;21042;-61
2021/12/02 10:33:39;;;;;;;3.00;2.35;;;;;;;6.87;73.61;96241.74;1789970;79;20998;-58
2021/12/02 10:36:11;;;;;;;5.67;4.03;;;;;;;6.92;73.15;96248.80;1784357;79;21426;-60
2021/12/02 10:38:45;;;;;;;5.95;4.45;;;;;;;6.93;73.37;96227.73;1788656;79;21709;-60
2021/12/02 10:41:24;;;;;;;4.50;3.30;;;;;;;6.94;73.43;96231.18;1791792;79;20912;-61
2021/12/02 10:44:11;;;;;;;6.00;4.10;;;;;;;6.95;73.41;96232.77;1789651;79;20907;-62
2021/12/02 10:47:01;;;;;;;8.53;5.87;;;;;;;6.94;73.25;96233.84;1781323;79;20990;-58
2021/12/02 10:49:34;;;;;;;2.83;2.25;;;;;;;6.93;73.62;96227.73;1787532;79;21081;-63
2021/12/02 10:52:04;;;;;;;3.87;2.50;;;;;;;6.94;73.36;96231.18;1787471;79;21852;-60
2021/12/02 10:54:37;;;;;;;8.65;6.45;;;;;;;6.97;73.35;96224.70;1784844;79;21053;-60
2021/12/02 10:57:19;;;;;;;3.00;2.70;;;;;;;7.00;73.37;96233.38;1795098;79;21423;-59
2021/12/02 10:59:54;;;;;;;4.78;3.50;;;;;;;7.04;73.57;96226.37;1784151;78;21291;-61
2021/12/02 11:02:30;;;;;;;5.87;3.00;;;;;;;7.09;73.25;96234.19;1810927;79;21085;-61
2021/12/02 11:05:20;;;;;;;5.12;3.02;;;;;;;7.11;73.14;96235.23;1813975;78;21362;-58
2021/12/02 11:08:06;;;;;;;6.25;3.25;;;;;;;7.14;73.20;96234.59;1811441;78;21470;-63
2021/12/02 11:10:44;;;;;;;4.35;3.02;;;;;;;7.19;73.15;96235.77;1812745;79;20974;-60
2021/12/02 11:13:26;;;;;;;4.67;3.30;;;;;;;7.28;73.13;96229.91;1812557;79;21426;-57
2021/12/02 11:15:56;;;;;;;5.40;4.45;;;;;;;7.36;72.94;96228.61;1812546;79;21512;-61
2021/12/02 11:18:28;;;;;;;7.75;4.28;;;;;;;7.46;72.79;96224.86;1799164;77;21092;-63
2021/12/02 11:21:00;;;;;;;6.57;4.80;;;;;;;7.51;72.33;96226.81;1814043;78;20887;-65
2021/12/02 11:23:43;;;;;;;5.80;4.15;;;;;;;7.59;72.44;96229.25;1816374;78;20931;-57
2021/12/02 11:26:15;;;;;;;6.03;3.60;;;;;;;7.67;72.04;96225.81;1817440;78;20958;-59
2021/12/02 11:28:48;;;;;;;5.67;4.57;;;;;;;7.71;71.62;96229.41;1784563;78;21069;-62
2021/12/02 11:31:20;;;;;;;7.83;4.67;;;;;;;7.71;71.69;96225.95;1809709;78;21679;-60
2021/12/02 11:33:50;;;;;;;5.03;3.80;;;;;;;7.76;71.58;96221.80;1810875;78;21567;-65
2021/12/02 11:36:28;;;;;;;7.55;3.17;;;;;;;7.84;71.54;96225.03;1809571;78;20879;-59
2021/12/02 11:38:58;;;;;;;6.12;3.50;;;;;;;7.90;71.36;96217.09;1815808;78;21004;-59
2021/12/02 11:41:27;;;;;;;5.10;3.72;;;;;;;7.91;71.24;96217.34;1812346;78;21543;-58
2021/12/02 11:43:59;;;;;;;5.78;4.20;;;;;;;7.88;71.31;96220.09;1815698;78;21101;-60
2021/12/02 11:46:30;;;;;;;5.53;4.15;;;;;;;7.86;71.19;96212.95;1817111;78;20853;-59
2021/12/02 11:48:59;;;;;;;5.85;4.17;;;;;;;7.85;71.09;96216.70;1812699;78;20972;-65
2021/12/02 11:51:29;;;;;;;5.90;3.85;;;;;;;7.85;71.15;96207.92;1783447;78;21132;-65
2021/12/02 11:54:02;;;;;;;6.85;4.50;;;;;;;7.83;71.11;96207.45;1817062;78;21014;-59
2021/12/02 11:56:34;;;;;;;7.17;4.90;;;;;;;7.80;71.37;96212.87;1824223;78;21119;-64
2021/12/02 11:59:05;;;;;;;8.60;3.83;;;;;;;7.76;71.43;96214.60;1820856;78;20967;-63
2021/12/02 12:01:34;;;;;;;5.72;3.65;;;;;;;7.71;71.33;96213.42;1820469;77;20994;-58
2021/12/02 12:04:11;;;;;;;7.47;3.98;;;;;;;7.67;71.57;96201.83;1821147;78;21493;-60
2021/12/02 12:06:44;;;;;;;7.72;5.08;;;;;;;7.63;71.67;96204.87;1821277;78;21035;-58
2021/12/02 12:09:16;;;;;;;11.73;6.35;;;;;;;7.63;71.88;96212.11;1812440;78;21684;-63
2021/12/02 12:11:50;;;;;;;10.13;7.77;;;;;;;7.65;72.03;96220.02;1820586;78;21635;-61
2021/12/02 12:14:40;;;;;;;7.97;5.05;;;;;;;7.67;72.15;96215.16;1817200;78;20935;-58
2021/12/02 12:17:17;;;;;;;7.50;5.80;;;;;;;7.69;72.26;96206.84;1817704;78;20935;-60
2021/12/02 12:19:50;;;;;;;9.50;5.33;;;;;;;7.70;72.16;96218.50;1818440;78;21013;-57
2021/12/02 12:22:30;;;;;;;6.30;4.35;;;;;;;7.66;72.22;96224.23;1813014;78;21548;-65
2021/12/02 12:25:03;;;;;;;6.28;4.80;;;;;;;7.63;72.25;96224.85;1818047;78;20963;-57
2021/12/02 12:27:32;;;;;;;6.03;4.92;;;;;;;7.63;72.40;96222.19;1790336;79;21581;-61
2021/12/02 12:30:19;;;;;;;7.10;4.70;;;;;;;7.65;72.45;96234.67;1782082;79;20947;-62
2021/12/02 12:33:03;;;;;;;7.67;5.28;;;;;;;7.68;72.51;96240.69;1783073;79;21427;-63
2021/12/02 12:38:27;;;;;;;8.15;6.17;;;;;;;7.78;72.41;96247.05;1814385;78;21039;-66
2021/12/02 12:40:57;;;;;;;9.90;6.30;;;;;;;7.84;72.54;96248.48;1789288;79;20952;-66
2021/12/02 12:43:32;;;;;;;8.68;6.03;;;;;;;7.93;72.44;96244.47;1788945;79;20963;-60
2021/12/02 12:46:08;;;;;;;10.05;7.35;;;;;;;8.03;72.40;96234.24;1786351;79;20937;-62
2021/12/02 12:48:35;;;;;;;6.08;4.45;;;;;;;8.15;72.06;96238.39;1787776;79;21067;-59
2021/12/02 12:51:26;;;;;;;9.45;5.65;;;;;;;8.22;71.76;96245.36;1789339;79;21003;-62
2021/12/02 12:53:54;;;;;;;8.83;6.72;;;;;;;8.20;71.73;96242.77;1787762;79;21054;-63
2021/12/02 12:56:38;;;;;;;9.30;6.28;;;;;;;8.11;71.80;96249.46;1791283;79;21126;-63
2021/12/02 12:59:09;;;;;;;6.53;4.60;;;;;;;8.00;72.06;96253.56;1795704;79;21047;-58
2021/12/02 13:01:37;;;;;;;7.65;4.72;;;;;;;7.91;72.40;96263.45;1803308;79;21064;-60
2021/12/02 13:04:19;;;;;;;5.87;4.15;;;;;;;7.83;72.67;96254.89;1788146;79;20962;-61
2021/12/02 13:07:10;;;;;;;5.95;4.85;;;;;;;7.79;72.87;96259.83;1775996;80;20957;-59
2021/12/02 13:10:03;;;;;;;4.55;3.62;;;;;;;7.73;73.11;96260.52;1775496;80;21482;-63
2021/12/02 13:12:47;;;;;;;5.28;4.05;;;;;;;7.70;73.20;96255.05;1779772;79;21469;-59
2021/12/02 13:15:20;;;;;;;8.48;3.50;;;;;;;7.64;73.24;96261.08;1791778;79;21013;-65
2021/12/02 13:17:57;;;;;;;6.37;4.10;;;;;;;7.57;73.37;96261.55;1781812;79;20963;-60
2021/12/02 13:20:33;;;;;;;11.03;4.90;;;;;;;7.52;73.48;96266.23;1789150;79;20935;-63
2021/12/02 13:23:21;;;;;;;4.75;3.27;;;;;;;7.45;73.76;96267.23;1788793;79;21129;-66
2021/12/02 13:25:55;;;;;;;6.45;4.70;;;;;;;7.38;73.92;96274.91;1784839;79;21526;-60
2021/12/02 13:28:32;;;;;;;11.60;6.60;;;;;;;7.29;74.21;96276.23;1787867;79;21093;-61
2021/12/02 13:31:04;;;;;;;10.53;6.72;;;;;;;7.23;74.47;96271.36;1787913;79;20872;-59
2021/12/02 13:33:42;;;;;;;8.90;6.30;;;;;;;7.20;74.73;96275.42;1787211;79;21521;-60
2021/12/02 13:36:12;;;;;;;8.55;6.65;;;;;;;7.17;74.77;96273.37;1779476;79;20883;-64
2021/12/02 13:38:41;;;;;;;10.80;8.05;;;;;;;7.15;74.88;96273.44;1782400;79;20900;-57
2021/12/02 13:41:19;;;;;;;12.23;8.15;;;;;;;7.14;74.99;96278.52;1782446;79;21098;-59
2021/12/02 13:44:02;;;;;;;14.58;8.95;;;;;;;7.10;75.04;96273.04;1778020;79;20901;-59
2021/12/02 13:46:48;;;;;;;13.45;8.15;;;;;;;7.06;75.12;96274.77;1785268;79;21416;-58
2021/12/02 13:49:20;;;;;;;13.15;8.00;;;;;;;6.98;75.35;96266.73;1781518;79;21467;-64
2021/12/02 13:54:50;;;;;;;11.45;8.05;;;;;;;6.84;75.85;96272.95;1818402;77;21107;-57
2021/12/02 13:57:44;;;;;;;14.78;8.25;;;;;;;6.77;76.20;96276.60;1820966;78;21478;-59
2021/12/02 14:00:21;;;;;;;13.62;10.23;;;;;;;6.73;76.48;96274.86;1739705;82;20983;-63
2021/12/02 14:02:53;;;;;;;17.40;13.98;;;;;;;6.71;76.75;96276.48;1764303;81;21534;-60
2021/12/02 14:05:25;;;;;;;17.42;13.38;;;;;;;6.69;76.91;96285.31;1766423;81;21110;-60
2021/12/02 14:07:55;;;;;;;15.60;12.13;;;;;;;6.65;77.07;96278.26;1789678;79;21665;-57
2021/12/02 14:10:27;;;;;;;10.13;7.87;;;;;;;6.56;77.26;96279.55;1819167;78;20963;-61
2021/12/02 14:13:06;;;;;;;12.18;9.90;;;;;;;6.50;77.48;96276.01;1817303;78;21082;-58
2021/12/02 14:15:38;;;;;;;20.15;11.25;;;;;;;6.48;77.64;96288.26;1820530;78;21078;-61
2021/12/02 14:18:23;;;;;;;20.88;11.30;;;;;;;6.46;77.80;96290.45;1817491;78;21082;-64
2021/12/02 14:21:06;;;;;;;8.43;6.92;;;;;;;6.40;78.03;96290.88;1813809;78;21531;-59
2021/12/02 14:23:39;;;;;;;11.57;7.97;;;;;;;6.36;78.32;96285.94;1776716;79;21623;-63
2021/12/02 14:26:19;;;;;;;44.75;28.10;;;;;;;6.37;78.53;96285.62;1815552;78;21516;-58
2021/12/02 14:28:52;;;;;;;29.00;18.85;;;;;;;6.41;78.66;96281.26;1815868;78;20956;-60
2021/12/02 14:31:34;;;;;;;19.07;14.73;;;;;;;6.43;78.68;96299.02;1821143;78;21486;-62
2021/12/02 14:34:05;;;;;;;16.00;10.70;;;;;;;6.40;78.77;96295.66;1820421;77;21575;-58
2021/12/02 14:36:47;;;;;;;39.60;21.52;;;;;;;6.37;78.81;96294.93;1820222;77;21391;-59
2021/12/02 14:39:21;;;;;;;31.23;17.85;;;;;;;6.31;78.92;96296.16;1821569;77;20979;-60
2021/12/02 14:41:51;;;;;;;16.25;11.05;;;;;;;6.26;79.02;96289.63;1820464;78;21047;-62
2021/12/02 14:44:21;;;;;;;28.85;16.60;;;;;;;6.20;79.09;96295.60;1820063;77;21027;-61
2021/12/02 14:46:49;;;;;;;30.15;15.70;;;;;;;6.14;79.22;96296.83;1821069;78;21129;-58
2021/12/02 14:49:35;;;;;;;44.42;20.25;;;;;;;6.12;79.44;96300.88;1821027;78;20943;-60
2021/12/02 14:52:16;;;;;;;42.17;20.40;;;;;;;6.07;79.50;96302.31;1801034;78;21002;-64
2021/12/02 14:55:00;;;;;;;34.33;16.52;;;;;;;6.04;79.68;96309.02;1783382;80;20962;-62
2021/12/02 14:57:25;;;;;;;16.50;9.40;;;;;;;6.06;79.80;96312.69;1797402;78;20955;-62
2021/12/02 15:00:08;;;;;;;18.92;9.75;;;;;;;6.04;79.82;96317.53;1819751;78;21836;-62
2021/12/02 15:02:39;;;;;;;10.05;6.87;;;;;;;6.00;79.86;96323.21;1820100;78;20880;-59
2021/12/02 15:05:25;;;;;;;11.18;7.40;;;;;;;5.95;79.93;96318.00;1820007;78;21580;-58
2021/12/02 15:07:59;;;;;;;16.30;9.53;;;;;;;5.93;80.00;96316.20;1818746;78;20935;-59
2021/12/02 15:10:28;;;;;;;17.02;10.48;;;;;;;5.96;80.05;96320.89;1812914;78;21090;-60
2021/12/02 15:13:10;;;;;;;20.27;14.20;;;;;;;6.00;80.09;96331.19;1819308;78;21272;-60
2021/12/02 15:15:47;;;;;;;47.27;33.02;;;;;;;6.04;80.05;96330.81;1813211;78;21340;-61
